Time;durP1;ratioP1;P1;durP2;ratioP2;P2;SDS_P1;SDS_P2;PMS_P1;PMS_P2;Temp;Humidity;BMP_temperature;BMP_pressure;BME280_temperature;BME280_humidity;BME280_pressure;Samples;Min_cycle;Max_cycle;Signal;HPM_P1;HPM_P2
2021/08/04 06:23:36;;;;;;;0.10;0.10;;;17.60;99.90;;;;;;5463157;22;20326;-74
2021/08/04 06:26:02;;;;;;;0.20;0.20;;;17.50;99.90;;;;;;5091495;28;20216;-74
2021/08/04 06:28:28;;;;;;;0.32;0.32;;;17.50;99.90;;;;;;5091437;28;20569;-74
2021/08/04 06:30:54;;;;;;;0.10;0.10;;;17.70;99.90;;;;;;5091937;28;20195;-74
2021/08/04 06:33:20;;;;;;;1.77;1.70;;;17.60;99.90;;;;;;5091732;28;20238;-74
2021/08/04 06:35:46;;;;;;;0.55;0.55;;;17.70;99.90;;;;;;5091860;28;20569;-74
2021/08/04 06:38:12;;;;;;;0.77;0.35;;;17.70;99.90;;;;;;5091946;28;20172;-74
2021/08/04 06:40:38;;;;;;;0.08;0.08;;;17.90;99.90;;;;;;5086333;28;20160;-75
2021/08/04 06:43:04;;;;;;;0.55;0.55;;;18.00;99.90;;;;;;5089730;28;20192;-76
2021/08/04 06:45:30;;;;;;;0.10;0.10;;;18.00;99.90;;;;;;5071906;28;20164;-73
2021/08/04 06:47:55;;;;;;;0.22;0.22;;;17.80;99.90;;;;;;5089763;28;20152;-74
2021/08/04 06:50:23;;;;;;;0.20;0.20;;;17.60;99.90;;;;;;5089739;28;20188;-75
2021/08/04 06:52:49;;;;;;;0.30;0.30;;;17.60;99.90;;;;;;5071365;28;20211;-76
2021/08/04 06:55:15;;;;;;;0.50;0.50;;;17.50;99.90;;;;;;5089602;28;20179;-76
2021/08/04 06:57:41;;;;;;;0.50;0.50;;;17.50;99.90;;;;;;5095061;28;20167;-76
2021/08/04 07:00:08;;;;;;;0.35;0.35;;;17.40;99.90;;;;;;5091590;28;20171;-76
2021/08/04 07:02:33;;;;;;;1.00;0.82;;;17.50;99.90;;;;;;5091246;28;20174;-75
2021/08/04 07:04:59;;;;;;;0.20;0.20;;;17.80;99.90;;;;;;5091223;28;20163;-75
2021/08/04 07:07:25;;;;;;;0.50;0.50;;;18.00;99.90;;;;;;5091273;28;20173;-75
2021/08/04 07:09:51;;;;;;;0.22;0.22;;;18.10;99.90;;;;;;5109522;28;20166;-75
2021/08/04 07:12:16;;;;;;;0.20;0.20;;;17.90;99.90;;;;;;5091172;28;20229;-74
2021/08/04 07:14:42;;;;;;;0.30;0.30;;;18.00;99.90;;;;;;5101097;28;20191;-74
2021/08/04 07:17:08;;;;;;;0.20;0.20;;;18.00;99.90;;;;;;5089083;28;20152;-75
2021/08/04 07:19:35;;;;;;;5.35;1.83;;;17.70;99.90;;;;;;5070830;28;20194;-74
2021/08/04 07:22:00;;;;;;;0.28;0.28;;;17.80;99.90;;;;;;5070739;28;20194;-75
2021/08/04 07:24:26;;;;;;;0.90;0.82;;;17.80;99.90;;;;;;5088617;28;20679;-76
2021/08/04 07:26:53;;;;;;;0.30;0.30;;;17.80;99.90;;;;;;5088057;28;20632;-75
2021/08/04 07:29:19;;;;;;;0.15;0.15;;;17.70;99.90;;;;;;5100600;28;20163;-75
2021/08/04 07:31:46;;;;;;;0.30;0.30;;;17.80;99.90;;;;;;5079824;28;20710;-76
2021/08/04 07:34:14;;;;;;;0.57;0.15;;;17.60;99.90;;;;;;5085647;28;20261;-74
2021/08/04 07:36:40;;;;;;;1.75;0.85;;;17.70;99.90;;;;;;5071312;28;20258;-74
2021/08/04 07:39:06;;;;;;;0.22;0.22;;;17.90;99.90;;;;;;5071432;28;20178;-74
2021/08/04 07:41:32;;;;;;;0.00;0.00;;;17.90;99.90;;;;;;5077305;28;20171;-74
2021/08/04 07:43:59;;;;;;;0.43;0.28;;;18.00;99.90;;;;;;5078929;28;20203;-76
2021/08/04 07:46:25;;;;;;;0.60;0.45;;;18.20;99.90;;;;;;5085575;28;20242;-76
2021/08/04 07:48:51;;;;;;;0.15;0.15;;;18.00;99.90;;;;;;5089730;28;20175;-76
2021/08/04 07:51:17;;;;;;;0.35;0.35;;;18.10;99.90;;;;;;5102803;28;20200;-76
2021/08/04 07:53:43;;;;;;;0.45;0.45;;;18.20;99.90;;;;;;5087643;28;20188;-77
2021/08/04 07:56:09;;;;;;;0.10;0.10;;;18.30;99.90;;;;;;5087924;28;20224;-74
2021/08/04 07:58:35;;;;;;;0.32;0.32;;;18.50;99.90;;;;;;5086449;28;20174;-75
2021/08/04 08:01:01;;;;;;;0.22;0.22;;;18.80;99.90;;;;;;5091373;28;20178;-74
2021/08/04 08:03:27;;;;;;;0.15;0.15;;;19.00;99.90;;;;;;5083155;28;20199;-75
2021/08/04 08:05:53;;;;;;;0.10;0.10;;;19.10;99.90;;;;;;5080652;28;20639;-75
2021/08/04 08:08:19;;;;;;;0.85;0.85;;;19.10;99.90;;;;;;5094299;28;20195;-76
2021/08/04 08:10:49;;;;;;;0.52;0.52;;;18.80;99.90;;;;;;5104817;28;20199;-76
2021/08/04 08:13:16;;;;;;;0.52;0.52;;;18.80;99.90;;;;;;5075269;28;20199;-76
2021/08/04 08:15:42;;;;;;;0.10;0.10;;;19.20;99.90;;;;;;5077999;28;20685;-75
2021/08/04 08:18:09;;;;;;;0.15;0.15;;;19.50;99.90;;;;;;5070946;28;20171;-74
2021/08/04 08:20:36;;;;;;;0.30;0.30;;;19.30;99.90;;;;;;5071170;28;20179;-75
2021/08/04 08:23:03;;;;;;;2.30;1.52;;;19.70;99.90;;;;;;5108012;28;21415;-75
2021/08/04 08:25:29;;;;;;;0.10;0.10;;;20.30;99.90;;;;;;5108196;28;20152;-75
2021/08/04 08:27:55;;;;;;;0.40;0.40;;;20.20;99.90;;;;;;5090131;28;20201;-75
2021/08/04 08:30:21;;;;;;;1.25;1.13;;;20.40;99.90;;;;;;5078772;28;20260;-77
2021/08/04 08:32:48;;;;;;;0.10;0.10;;;20.90;99.90;;;;;;5089375;28;20206;-74
2021/08/04 08:35:16;;;;;;;0.10;0.10;;;21.10;99.90;;;;;;5087851;28;20174;-74
2021/08/04 08:37:43;;;;;;;0.10;0.10;;;21.20;99.90;;;;;;5088169;28;20183;-75
2021/08/04 08:40:11;;;;;;;0.43;0.17;;;21.10;99.90;;;;;;5087871;28;20245;-75
2021/08/04 08:42:41;;;;;;;0.22;0.20;;;21.60;99.90;;;;;;5069900;28;20182;-74
2021/08/04 08:45:08;;;;;;;1.23;0.75;;;21.50;99.90;;;;;;5069838;28;20175;-74
2021/08/04 08:47:34;;;;;;;0.08;0.08;;;21.90;99.90;;;;;;5088090;28;20159;-75
2021/08/04 08:50:02;;;;;;;0.40;0.40;;;22.10;99.90;;;;;;5087709;28;20183;-74
2021/08/04 08:52:28;;;;;;;0.30;0.30;;;21.60;99.90;;;;;;5082510;28;20191;-74
2021/08/04 08:54:54;;;;;;;0.80;0.47;;;20.70;99.90;;;;;;5077148;28;20175;-75
2021/08/04 08:57:21;;;;;;;0.45;0.45;;;20.30;99.90;;;;;;5090870;28;20181;-75
2021/08/04 08:59:46;;;;;;;0.38;0.38;;;20.00;99.90;;;;;;5081354;28;20229;-75
2021/08/04 09:02:12;;;;;;;0.30;0.30;;;20.30;99.90;;;;;;5067607;28;20168;-75
2021/08/04 09:04:38;;;;;;;0.10;0.10;;;20.30;99.90;;;;;;5071623;28;20210;-75
2021/08/04 09:07:04;;;;;;;0.22;0.22;;;20.50;99.90;;;;;;5082225;28;20164;-75
2021/08/04 09:09:33;;;;;;;0.20;0.20;;;20.50;99.90;;;;;;5084180;28;20179;-75
2021/08/04 09:12:02;;;;;;;0.82;0.75;;;20.20;99.90;;;;;;5062793;28;20229;-74
2021/08/04 09:14:31;;;;;;;0.50;0.50;;;20.00;99.90;;;;;;5088352;28;20164;-76
2021/08/04 09:17:08;;;;;;;0.03;0.03;;;19.60;99.90;;;;;;5082144;28;20214;-75
2021/08/04 09:19:36;;;;;;;0.52;0.52;;;20.00;99.90;;;;;;5070642;28;20160;-74
2021/08/04 09:22:14;;;;;;;0.73;0.57;;;20.00;99.90;;;;;;5072364;28;20186;-74
2021/08/04 09:25:03;;;;;;;0.20;0.20;;;20.20;99.90;;;;;;5088930;28;20254;-75
2021/08/04 09:27:58;;;;;;;0.88;0.68;;;20.10;99.90;;;;;;5084589;28;20225;-75
2021/08/04 09:30:30;;;;;;;0.55;0.40;;;19.50;99.90;;;;;;5070083;28;20192;-75
2021/08/04 09:33:12;;;;;;;1.40;0.75;;;19.30;99.90;;;;;;5071310;28;20203;-73
2021/08/04 09:35:57;;;;;;;0.10;0.10;;;19.50;99.90;;;;;;5087074;28;20203;-73
2021/08/04 09:38:24;;;;;;;0.93;0.45;;;19.30;99.90;;;;;;5096023;28;20208;-73
2021/08/04 09:41:08;;;;;;;0.35;0.35;;;19.00;99.90;;;;;;5095101;28;20183;-73
2021/08/04 09:43:34;;;;;;;0.43;0.43;;;18.70;99.90;;;;;;5082084;28;20718;-73
2021/08/04 09:46:00;;;;;;;0.20;0.20;;;18.80;99.90;;;;;;5091487;28;20179;-73
2021/08/04 09:48:28;;;;;;;2.55;1.30;;;19.10;99.90;;;;;;5099564;28;20196;-74
2021/08/04 09:50:57;;;;;;;0.22;0.22;;;19.30;99.90;;;;;;5072327;28;20200;-75
2021/08/04 09:53:32;;;;;;;0.03;0.03;;;19.50;99.90;;;;;;5072621;28;20164;-74
2021/08/04 09:56:04;;;;;;;0.20;0.20;;;19.70;99.90;;;;;;5090461;28;20250;-74
2021/08/04 09:58:30;;;;;;;0.10;0.10;;;19.50;99.90;;;;;;5089138;28;20191;-74
2021/08/04 10:00:56;;;;;;;0.50;0.50;;;19.40;99.90;;;;;;5087140;28;20169;-74
2021/08/04 10:03:22;;;;;;;0.32;0.32;;;19.50;99.90;;;;;;5067957;28;20181;-75
2021/08/04 10:05:48;;;;;;;0.17;0.17;;;19.60;99.90;;;;;;5052380;28;20215;-74
2021/08/04 10:08:14;;;;;;;0.20;0.20;;;19.60;99.90;;;;;;5052441;28;20219;-74
2021/08/04 10:10:44;;;;;;;0.10;0.10;;;19.90;99.90;;;;;;5070290;28;20213;-74
2021/08/04 10:13:18;;;;;;;0.30;0.30;;;20.10;99.90;;;;;;5052456;28;20236;-74
2021/08/04 10:15:46;;;;;;;0.25;0.25;;;19.90;99.90;;;;;;5070431;28;20152;-73
2021/08/04 10:18:23;;;;;;;0.10;0.10;;;20.10;99.90;;;;;;5057197;28;20194;-74
2021/08/04 10:20:56;;;;;;;0.20;0.20;;;20.30;99.90;;;;;;5090237;28;20167;-73
2021/08/04 10:23:24;;;;;;;0.20;0.20;;;20.30;99.90;;;;;;5089779;28;20234;-74
2021/08/04 10:25:51;;;;;;;0.10;0.10;;;20.40;99.90;;;;;;5072065;28;20203;-76
2021/08/04 10:28:17;;;;;;;0.08;0.08;;;20.50;99.90;;;;;;5089906;28;20195;-75
2021/08/04 10:30:44;;;;;;;0.10;0.10;;;20.60;99.90;;;;;;5089766;28;20191;-75
2021/08/04 10:33:11;;;;;;;0.32;0.32;;;21.00;99.90;;;;;;5089874;28;20612;-75
2021/08/04 10:35:41;;;;;;;0.60;0.38;;;21.30;99.90;;;;;;5071640;28;20183;-75
2021/08/04 10:38:09;;;;;;;0.50;0.50;;;21.70;99.90;;;;;;5088267;28;20196;-76
2021/08/04 10:40:35;;;;;;;0.10;0.10;;;21.60;99.90;;;;;;5071689;28;20235;-75
2021/08/04 10:43:02;;;;;;;0.30;0.30;;;21.50;99.90;;;;;;5089817;28;20163;-73
2021/08/04 10:45:31;;;;;;;0.20;0.20;;;21.00;99.90;;;;;;5088312;28;20183;-76
2021/08/04 10:48:23;;;;;;;0.20;0.20;;;21.30;99.90;;;;;;5084901;28;20214;-75
2021/08/04 10:51:16;;;;;;;0.73;0.57;;;21.80;99.90;;;;;;5069779;28;20224;-75
2021/08/04 10:54:00;;;;;;;0.15;0.13;;;21.80;99.90;;;;;;5085823;28;20195;-74
2021/08/04 10:56:32;;;;;;;0.40;0.40;;;21.70;99.90;;;;;;5089601;28;20155;-74
2021/08/04 10:59:13;;;;;;;4.85;0.50;;;22.10;99.90;;;;;;5071661;28;20202;-76
2021/08/04 11:01:42;;;;;;;0.32;0.32;;;21.90;99.90;;;;;;5071624;28;20182;-75
2021/08/04 11:04:15;;;;;;;0.28;0.28;;;21.40;99.90;;;;;;5089525;28;20171;-75
2021/08/04 11:07:09;;;;;;;0.38;0.38;;;21.70;99.90;;;;;;5089468;28;20155;-75
2021/08/04 11:09:48;;;;;;;0.52;0.52;;;22.20;99.90;;;;;;5089367;28;20195;-75
2021/08/04 11:12:16;;;;;;;0.80;0.80;;;21.80;99.90;;;;;;5089221;28;20167;-75
2021/08/04 11:14:56;;;;;;;2.08;0.38;;;21.80;99.90;;;;;;5070995;28;20210;-74
2021/08/04 11:17:28;;;;;;;0.15;0.15;;;21.50;99.90;;;;;;5071102;28;20165;-74
2021/08/04 11:19:57;;;;;;;0.60;0.60;;;21.70;99.90;;;;;;5088869;28;20494;-74
2021/08/04 11:22:48;;;;;;;0.10;0.10;;;21.90;99.90;;;;;;5088989;28;20162;-76
2021/08/04 11:25:53;;;;;;;0.85;0.28;;;22.20;99.90;;;;;;5088931;28;20181;-73
2021/08/04 11:28:19;;;;;;;0.10;0.10;;;22.00;99.90;;;;;;5026861;28;20252;-72
2021/08/04 11:30:51;;;;;;;0.50;0.50;;;21.50;99.90;;;;;;5026912;28;20212;-72
2021/08/04 11:33:29;;;;;;;0.20;0.20;;;22.00;99.90;;;;;;5026477;28;21056;-75
2021/08/04 11:36:06;;;;;;;0.20;0.20;;;22.40;99.90;;;;;;5024031;28;20161;-75
2021/08/04 11:38:35;;;;;;;0.25;0.25;;;22.30;99.90;;;;;;5026086;28;20283;-75
2021/08/04 11:41:41;;;;;;;4.18;0.82;;;22.70;99.90;;;;;;5026198;28;20173;-73
2021/08/04 11:44:26;;;;;;;0.00;0.00;;;22.60;99.90;;;;;;5008425;28;20204;-75
2021/08/04 11:47:03;;;;;;;0.30;0.30;;;22.70;99.90;;;;;;5026226;28;20231;-77
2021/08/04 11:49:36;;;;;;;4.70;1.08;;;22.60;99.90;;;;;;5026553;28;20197;-74
2021/08/04 11:52:04;;;;;;;3.65;0.63;;;22.50;99.90;;;;;;5028964;28;20295;-72
2021/08/04 11:54:44;;;;;;;1.08;0.80;;;21.80;99.90;;;;;;5010536;28;20208;-73
2021/08/04 11:57:31;;;;;;;11.80;0.73;;;22.30;99.90;;;;;;5026493;28;20158;-71
2021/08/04 12:00:03;;;;;;;0.40;0.40;;;22.00;99.90;;;;;;5064989;28;20209;-71
2021/08/04 12:02:34;;;;;;;2.33;0.30;;;21.90;99.90;;;;;;5069871;28;20182;-71
2021/08/04 12:05:01;;;;;;;0.30;0.30;;;22.00;99.90;;;;;;5084271;28;20175;-71
2021/08/04 12:07:30;;;;;;;0.28;0.15;;;21.50;99.90;;;;;;5087786;28;20189;-71
2021/08/04 12:09:57;;;;;;;25.42;1.05;;;21.30;99.90;;;;;;5069479;28;20237;-72
2021/08/04 12:12:31;;;;;;;0.10;0.10;;;21.50;99.90;;;;;;5069666;28;20657;-72
2021/08/04 12:14:58;;;;;;;1.40;0.28;;;21.70;99.90;;;;;;5084915;28;20205;-71
2021/08/04 12:17:32;;;;;;;0.15;0.15;;;22.30;99.90;;;;;;5087821;28;20228;-73
2021/08/04 12:20:09;;;;;;;0.75;0.73;;;22.90;99.90;;;;;;5069608;28;20198;-73
2021/08/04 12:22:35;;;;;;;0.52;0.52;;;23.30;99.90;;;;;;5087743;28;20158;-72
2021/08/04 12:25:03;;;;;;;0.20;0.20;;;23.20;99.90;;;;;;5087551;28;20222;-73
2021/08/04 12:27:52;;;;;;;0.55;0.25;;;22.90;99.90;;;;;;5072742;28;20167;-72
2021/08/04 12:30:23;;;;;;;0.52;0.52;;;22.70;99.90;;;;;;5089260;28;20274;-74
2021/08/04 12:33:05;;;;;;;0.47;0.30;;;22.50;99.90;;;;;;5091758;28;20164;-72
2021/08/04 12:35:42;;;;;;;2.95;0.47;;;22.70;99.90;;;;;;5088332;28;20186;-74
2021/08/04 12:38:11;;;;;;;0.40;0.40;;;22.60;99.90;;;;;;5073924;28;20647;-75
2021/08/04 12:40:39;;;;;;;1.27;0.70;;;22.70;99.90;;;;;;5092216;28;20185;-74
2021/08/04 12:43:10;;;;;;;0.95;0.17;;;22.50;99.90;;;;;;5074073;28;20164;-74
2021/08/04 12:45:50;;;;;;;0.10;0.10;;;22.80;99.90;;;;;;5073978;28;20179;-74
2021/08/04 12:48:17;;;;;;;0.35;0.35;;;22.30;99.90;;;;;;5091918;28;20337;-74
2021/08/04 12:50:51;;;;;;;0.65;0.65;;;22.00;99.90;;;;;;5073617;28;20279;-76
2021/08/04 12:53:24;;;;;;;0.60;0.60;;;21.90;99.90;;;;;;5083456;28;20550;-76
2021/08/04 12:56:04;;;;;;;0.75;0.75;;;21.90;99.90;;;;;;5071446;28;20167;-76
2021/08/04 12:59:09;;;;;;;7.82;0.55;;;21.70;99.90;;;;;;5070574;28;20195;-75
2021/08/04 13:01:47;;;;;;;0.30;0.30;;;21.60;99.90;;;;;;5070125;28;20174;-75
2021/08/04 13:04:18;;;;;;;0.68;0.68;;;21.60;99.90;;;;;;5070426;28;20161;-75
2021/08/04 13:06:54;;;;;;;0.50;0.22;;;21.20;99.90;;;;;;5071623;28;20183;-74
2021/08/04 13:09:31;;;;;;;0.45;0.30;;;21.00;99.90;;;;;;5085897;28;20195;-74
2021/08/04 13:12:26;;;;;;;0.15;0.15;;;21.20;99.90;;;;;;5085596;28;20214;-73
2021/08/04 13:15:02;;;;;;;0.32;0.32;;;21.20;99.90;;;;;;5079576;28;20195;-73
2021/08/04 13:17:33;;;;;;;0.50;0.50;;;21.20;99.90;;;;;;5078792;28;20621;-76
2021/08/04 13:20:24;;;;;;;0.30;0.30;;;21.20;99.90;;;;;;5084561;28;20199;-74
2021/08/04 13:22:59;;;;;;;0.20;0.20;;;21.30;99.90;;;;;;5087162;28;20313;-75
2021/08/04 13:25:53;;;;;;;0.60;0.32;;;21.70;99.90;;;;;;5084096;28;20179;-75
2021/08/04 13:28:29;;;;;;;3.95;1.13;;;22.00;99.90;;;;;;5072683;28;20188;-75
2021/08/04 13:31:00;;;;;;;0.45;0.45;;;22.30;99.90;;;;;;5070823;28;20212;-75
2021/08/04 13:33:28;;;;;;;0.10;0.10;;;22.50;99.90;;;;;;5071653;28;20243;-75
2021/08/04 13:36:01;;;;;;;1.05;0.57;;;22.20;99.90;;;;;;5089138;28;20187;-75
2021/08/04 13:38:28;;;;;;;0.40;0.40;;;22.40;99.90;;;;;;5071209;28;20175;-75
2021/08/04 13:40:56;;;;;;;0.32;0.32;;;22.30;99.90;;;;;;5070735;28;20175;-75
2021/08/04 13:43:22;;;;;;;0.40;0.40;;;21.80;99.90;;;;;;5091000;28;20174;-74
2021/08/04 13:45:49;;;;;;;0.65;0.65;;;21.50;99.90;;;;;;5072624;28;20199;-75
2021/08/04 13:48:15;;;;;;;0.40;0.40;;;21.40;99.90;;;;;;5069126;28;20171;-74
2021/08/04 13:50:43;;;;;;;0.28;0.28;;;21.50;99.90;;;;;;5090106;28;20240;-74
2021/08/04 13:53:09;;;;;;;1.35;1.00;;;21.60;99.90;;;;;;5090167;28;20171;-74
2021/08/04 13:55:36;;;;;;;0.45;0.45;;;21.60;99.90;;;;;;5072296;28;20195;-74
2021/08/04 13:58:04;;;;;;;0.43;0.43;;;21.30;99.90;;;;;;5072586;28;20258;-75
2021/08/04 14:00:38;;;;;;;0.10;0.10;;;21.20;99.90;;;;;;5071448;28;20182;-73
2021/08/04 14:03:08;;;;;;;0.40;0.40;;;20.80;99.90;;;;;;5080081;28;20219;-74
2021/08/04 14:05:41;;;;;;;0.40;0.40;;;20.80;99.90;;;;;;5075958;28;20207;-77
2021/08/04 14:08:09;;;;;;;2.13;1.20;;;20.80;99.90;;;;;;5080863;28;20241;-74
2021/08/04 14:10:36;;;;;;;3.25;0.35;;;20.90;99.90;;;;;;5087763;28;20202;-74
2021/08/04 14:13:02;;;;;;;0.30;0.30;;;20.90;99.90;;;;;;5087512;28;20225;-74
2021/08/04 14:15:28;;;;;;;0.40;0.40;;;21.10;99.90;;;;;;5088495;28;20210;-74
2021/08/04 14:17:54;;;;;;;0.17;0.17;;;21.00;99.90;;;;;;5089728;28;20167;-75
2021/08/04 14:20:20;;;;;;;0.28;0.28;;;20.80;99.90;;;;;;5089873;28;20243;-75
2021/08/04 14:22:46;;;;;;;4.47;1.50;;;20.80;99.90;;;;;;5071485;28;20160;-73
2021/08/04 14:25:13;;;;;;;0.57;0.57;;;20.90;99.90;;;;;;5087106;28;20202;-74
2021/08/04 14:27:41;;;;;;;0.10;0.10;;;20.70;99.90;;;;;;5080464;28;20214;-74
2021/08/04 14:30:09;;;;;;;0.68;0.65;;;20.80;99.90;;;;;;5089416;28;20219;-74
2021/08/04 14:32:35;;;;;;;0.20;0.20;;;20.70;99.90;;;;;;5071952;28;20172;-74
2021/08/04 14:35:01;;;;;;;0.20;0.20;;;20.60;99.90;;;;;;5089664;28;20166;-75
2021/08/04 14:37:27;;;;;;;0.40;0.40;;;20.70;99.90;;;;;;5089942;28;20160;-74
2021/08/04 14:39:54;;;;;;;0.20;0.20;;;20.60;99.90;;;;;;5071691;28;20191;-75
2021/08/04 14:42:21;;;;;;;0.80;0.50;;;20.70;99.90;;;;;;5071845;28;20182;-77
2021/08/04 14:44:47;;;;;;;1.42;1.05;;;20.80;99.90;;;;;;5089954;28;20167;-75
2021/08/04 14:47:13;;;;;;;0.30;0.30;;;20.70;99.90;;;;;;5089574;28;20227;-74
2021/08/04 14:49:41;;;;;;;0.20;0.20;;;20.70;99.90;;;;;;5070692;28;20222;-74
2021/08/04 14:52:07;;;;;;;0.10;0.10;;;20.70;99.90;;;;;;5088869;28;20188;-74
2021/08/04 14:54:33;;;;;;;0.22;0.22;;;20.70;99.90;;;;;;5088852;28;20160;-74
2021/08/04 14:56:59;;;;;;;0.93;0.63;;;20.80;99.90;;;;;;5088699;28;20186;-78
2021/08/04 14:59:25;;;;;;;0.28;0.28;;;20.80;99.90;;;;;;5070715;28;20218;-75
2021/08/04 15:01:51;;;;;;;0.25;0.25;;;20.70;99.90;;;;;;5088831;28;20160;-75
2021/08/04 15:04:17;;;;;;;0.52;0.52;;;20.70;99.90;;;;;;5070933;28;20174;-75
2021/08/04 15:06:43;;;;;;;0.25;0.25;;;20.60;99.90;;;;;;5070831;28;20243;-75
2021/08/04 15:09:09;;;;;;;0.28;0.28;;;20.60;99.90;;;;;;5088647;28;20191;-74
2021/08/04 15:11:37;;;;;;;0.63;0.63;;;20.60;99.90;;;;;;5070530;28;20195;-75
2021/08/04 15:14:04;;;;;;;0.73;0.73;;;20.70;99.90;;;;;;5070592;28;20167;-74
2021/08/04 15:16:30;;;;;;;0.63;0.63;;;20.50;99.90;;;;;;5088526;28;20156;-74
2021/08/04 15:18:57;;;;;;;0.73;0.73;;;20.40;99.90;;;;;;5070518;28;20191;-74
2021/08/04 15:21:23;;;;;;;2.35;0.63;;;20.40;99.90;;;;;;5088497;28;20159;-74
2021/08/04 15:23:49;;;;;;;0.10;0.10;;;20.40;99.90;;;;;;5088284;28;20226;-74
2021/08/04 15:26:15;;;;;;;0.88;0.88;;;20.40;99.90;;;;;;5088792;28;20181;-75
2021/08/04 15:28:46;;;;;;;0.28;0.28;;;20.30;99.90;;;;;;5088624;28;20183;-74
2021/08/04 15:31:15;;;;;;;0.10;0.10;;;20.30;99.90;;;;;;5082411;28;20620;-74
2021/08/04 15:33:41;;;;;;;0.80;0.80;;;20.30;99.90;;;;;;5066990;28;20187;-74
2021/08/04 15:36:09;;;;;;;0.73;0.73;;;20.30;99.90;;;;;;5068340;28;20171;-74
2021/08/04 15:38:37;;;;;;;0.68;0.68;;;20.30;99.90;;;;;;5079577;28;20183;-76
2021/08/04 15:41:03;;;;;;;0.20;0.20;;;20.30;99.90;;;;;;5070302;28;20163;-75
2021/08/04 15:43:29;;;;;;;0.35;0.35;;;20.20;99.90;;;;;;5088347;28;20160;-75
2021/08/04 15:45:55;;;;;;;0.63;0.60;;;20.20;99.90;;;;;;5070244;28;20175;-75
2021/08/04 15:48:21;;;;;;;0.10;0.10;;;20.20;99.90;;;;;;5088269;28;20199;-75
2021/08/04 15:50:47;;;;;;;3.15;1.00;;;20.10;99.90;;;;;;5088120;28;20202;-74
2021/08/04 15:53:13;;;;;;;0.25;0.25;;;20.20;99.90;;;;;;5070120;28;20282;-74
2021/08/04 15:55:40;;;;;;;0.35;0.35;;;20.30;99.90;;;;;;5088334;28;20477;-75
2021/08/04 15:58:07;;;;;;;0.20;0.20;;;20.40;99.90;;;;;;5088019;28;20148;-75
2021/08/04 16:00:34;;;;;;;0.52;0.43;;;20.40;99.90;;;;;;5087482;28;20230;-75
2021/08/04 16:03:00;;;;;;;1.25;0.35;;;20.30;99.90;;;;;;5070064;28;20167;-74
2021/08/04 16:05:26;;;;;;;1.77;1.67;;;20.30;99.90;;;;;;5088034;28;20168;-74
2021/08/04 16:07:51;;;;;;;0.57;0.57;;;20.20;99.90;;;;;;5069885;28;20172;-74
2021/08/04 16:10:17;;;;;;;0.93;0.93;;;20.20;99.90;;;;;;5087874;28;20195;-74
2021/08/04 16:12:43;;;;;;;0.20;0.20;;;20.30;99.90;;;;;;5088012;28;20176;-74
2021/08/04 16:15:11;;;;;;;0.93;0.73;;;20.30;99.90;;;;;;5087820;28;20174;-72
2021/08/04 16:17:37;;;;;;;0.08;0.08;;;20.20;99.90;;;;;;5087854;28;20197;-73
2021/08/04 16:20:12;;;;;;;1.08;0.50;;;20.20;99.90;;;;;;5069662;28;20202;-72
2021/08/04 16:22:39;;;;;;;0.77;0.77;;;20.20;99.90;;;;;;5069812;28;20211;-73
2021/08/04 16:25:07;;;;;;;0.60;0.60;;;20.00;99.90;;;;;;5088075;28;20215;-75
2021/08/04 16:27:34;;;;;;;0.63;0.40;;;19.80;99.90;;;;;;5087933;28;20155;-73
2021/08/04 16:30:00;;;;;;;0.68;0.68;;;19.80;99.90;;;;;;5087553;28;20192;-73
2021/08/04 16:32:27;;;;;;;0.35;0.35;;;19.80;99.90;;;;;;5066274;28;20187;-73
2021/08/04 16:34:54;;;;;;;1.48;1.38;;;19.80;99.90;;;;;;5050041;28;20707;-73
2021/08/04 16:37:20;;;;;;;0.60;0.60;;;19.70;99.90;;;;;;5050811;28;20188;-73
2021/08/04 16:39:47;;;;;;;0.38;0.38;;;19.70;99.90;;;;;;5087774;28;20188;-74
2021/08/04 16:42:13;;;;;;;1.23;0.65;;;19.70;99.90;;;;;;5087842;28;20597;-74
2021/08/04 16:44:39;;;;;;;1.38;1.27;;;19.80;99.90;;;;;;5069305;28;20160;-75
2021/08/04 16:47:05;;;;;;;0.95;0.95;;;19.70;99.90;;;;;;5069712;28;20164;-74
2021/08/04 16:49:31;;;;;;;0.20;0.20;;;19.80;99.90;;;;;;5087512;28;20192;-74
2021/08/04 16:51:58;;;;;;;1.38;1.25;;;19.90;99.90;;;;;;5087542;28;20257;-74
2021/08/04 16:54:24;;;;;;;1.02;0.55;;;20.00;99.90;;;;;;5087623;28;20180;-74
2021/08/04 16:56:52;;;;;;;0.15;0.15;;;20.00;99.90;;;;;;5087606;28;20223;-74
2021/08/04 16:59:21;;;;;;;0.17;0.17;;;19.90;99.90;;;;;;5087403;28;20184;-74
2021/08/04 17:01:49;;;;;;;0.38;0.38;;;19.90;99.90;;;;;;5069699;28;20183;-74
2021/08/04 17:04:16;;;;;;;2.28;0.85;;;19.80;99.90;;;;;;5087804;28;20164;-75
2021/08/04 17:06:42;;;;;;;0.20;0.20;;;19.80;99.90;;;;;;5086925;28;20186;-74
2021/08/04 17:09:09;;;;;;;0.52;0.38;;;19.80;99.90;;;;;;5085555;28;20286;-74
2021/08/04 17:11:36;;;;;;;1.23;0.65;;;19.90;99.90;;;;;;5085549;28;20263;-74
2021/08/04 17:14:03;;;;;;;1.13;1.13;;;19.80;99.90;;;;;;5090386;28;20156;-73
2021/08/04 17:16:33;;;;;;;0.98;0.90;;;19.80;99.90;;;;;;5088844;28;20231;-73
2021/08/04 17:18:59;;;;;;;0.20;0.20;;;19.80;99.90;;;;;;5088189;28;20199;-73
2021/08/04 17:21:27;;;;;;;0.38;0.38;;;19.80;99.90;;;;;;5089608;28;20164;-74
2021/08/04 17:23:53;;;;;;;6.72;0.57;;;19.80;99.90;;;;;;5089201;28;20227;-74
2021/08/04 17:26:19;;;;;;;0.10;0.10;;;19.80;99.90;;;;;;5089512;28;20156;-74
2021/08/04 17:28:45;;;;;;;0.43;0.43;;;19.70;99.90;;;;;;5089450;28;20203;-74
2021/08/04 17:31:11;;;;;;;0.82;0.45;;;19.70;99.90;;;;;;5085654;28;20228;-74
2021/08/04 17:33:37;;;;;;;0.10;0.10;;;19.60;99.90;;;;;;5072335;28;20175;-73
2021/08/04 17:36:03;;;;;;;0.82;0.82;;;19.60;99.90;;;;;;5090185;28;20186;-75
2021/08/04 17:38:29;;;;;;;0.80;0.80;;;19.60;99.90;;;;;;5090104;28;20200;-75
2021/08/04 17:40:55;;;;;;;0.45;0.40;;;19.60;99.90;;;;;;5090112;28;20156;-75
2021/08/04 17:43:21;;;;;;;2.22;0.93;;;19.60;99.90;;;;;;5072014;28;20201;-75
2021/08/04 17:45:47;;;;;;;1.15;0.70;;;19.50;99.90;;;;;;5089758;28;20164;-73
2021/08/04 17:48:13;;;;;;;0.20;0.20;;;19.50;99.90;;;;;;5089813;28;20212;-73
2021/08/04 17:50:39;;;;;;;1.55;0.30;;;19.50;99.90;;;;;;5089697;28;20252;-73
2021/08/04 17:53:05;;;;;;;0.20;0.20;;;19.50;99.90;;;;;;5089736;28;20152;-73
2021/08/04 17:55:31;;;;;;;0.47;0.45;;;19.50;99.90;;;;;;5089758;28;20537;-73
2021/08/04 17:57:59;;;;;;;1.13;0.35;;;19.50;99.90;;;;;;5089585;28;20195;-73
2021/08/04 18:00:26;;;;;;;0.22;0.22;;;19.50;99.90;;;;;;5071812;28;20168;-75
2021/08/04 18:02:51;;;;;;;1.75;1.52;;;19.40;99.90;;;;;;5089629;28;20206;-74
2021/08/04 18:05:17;;;;;;;0.47;0.47;;;19.40;99.90;;;;;;5089851;28;20171;-78
2021/08/04 18:07:43;;;;;;;0.00;0.00;;;19.30;99.90;;;;;;5089637;28;20215;-74
2021/08/04 18:10:10;;;;;;;1.50;1.40;;;19.30;99.90;;;;;;5089549;28;20199;-74
2021/08/04 18:12:36;;;;;;;3.05;1.33;;;19.30;99.90;;;;;;5089746;28;20180;-74
2021/08/04 18:15:04;;;;;;;0.90;0.90;;;19.30;99.90;;;;;;5089518;28;20161;-74
2021/08/04 18:17:30;;;;;;;0.20;0.20;;;19.30;99.90;;;;;;5089691;28;20190;-73
2021/08/04 18:19:55;;;;;;;0.20;0.20;;;19.30;99.90;;;;;;5089585;28;20644;-74
2021/08/04 18:22:21;;;;;;;0.35;0.35;;;19.20;99.90;;;;;;5071063;28;20195;-74
2021/08/04 18:24:47;;;;;;;0.57;0.57;;;19.20;99.90;;;;;;5088335;28;20224;-75
2021/08/04 18:27:13;;;;;;;0.77;0.30;;;19.20;99.90;;;;;;5089457;28;20210;-75
2021/08/04 18:29:39;;;;;;;0.28;0.28;;;19.20;99.90;;;;;;5089380;28;20631;-75
2021/08/04 18:32:05;;;;;;;1.17;0.85;;;19.20;99.90;;;;;;5089110;28;20196;-75
2021/08/04 18:34:31;;;;;;;1.17;0.95;;;19.20;99.90;;;;;;5071362;28;20338;-74
2021/08/04 18:36:57;;;;;;;0.10;0.10;;;19.20;99.90;;;;;;5071113;28;20172;-74
2021/08/04 18:39:23;;;;;;;2.95;1.13;;;19.10;99.90;;;;;;5071073;28;20196;-74
2021/08/04 18:41:49;;;;;;;0.15;0.15;;;19.10;99.90;;;;;;5069062;28;20165;-74
2021/08/04 18:44:18;;;;;;;0.50;0.50;;;19.10;99.90;;;;;;5069318;28;20216;-77
2021/08/04 18:46:45;;;;;;;0.30;0.22;;;19.10;99.90;;;;;;5050952;28;20169;-75
2021/08/04 18:49:11;;;;;;;0.08;0.08;;;19.10;99.90;;;;;;5034738;28;20200;-75
2021/08/04 18:51:37;;;;;;;0.13;0.13;;;19.10;99.90;;;;;;5050826;28;20197;-75
2021/08/04 18:54:04;;;;;;;0.50;0.50;;;19.10;99.90;;;;;;5068932;28;20152;-75
2021/08/04 18:56:30;;;;;;;0.40;0.40;;;19.10;99.90;;;;;;5050978;28;20177;-75
2021/08/04 18:58:56;;;;;;;0.50;0.50;;;19.20;99.90;;;;;;5068870;28;20196;-74
2021/08/04 19:01:22;;;;;;;0.60;0.60;;;19.20;99.90;;;;;;5050726;28;20177;-74
2021/08/04 19:03:48;;;;;;;1.90;0.85;;;19.20;99.90;;;;;;5068604;28;20192;-74
2021/08/04 19:06:14;;;;;;;0.30;0.30;;;19.20;99.90;;;;;;5068739;28;20243;-74
2021/08/04 19:08:40;;;;;;;0.20;0.20;;;19.20;99.90;;;;;;5068687;28;20196;-74
2021/08/04 19:11:10;;;;;;;1.00;1.00;;;19.20;99.90;;;;;;5050744;28;20196;-74
2021/08/04 19:13:38;;;;;;;0.45;0.45;;;19.20;99.90;;;;;;5050618;28;20184;-73
2021/08/04 19:16:05;;;;;;;0.30;0.30;;;19.30;99.90;;;;;;5050632;28;20172;-73
2021/08/04 19:18:31;;;;;;;0.10;0.10;;;19.20;99.90;;;;;;5050629;28;20695;-75
2021/08/04 19:20:57;;;;;;;0.40;0.40;;;19.10;99.90;;;;;;5068563;28;20157;-73